createdAt,value
2022-11-05T00:04:56.765Z,6.40
2022-11-05T00:10:06.460Z,6.50
2022-11-05T00:15:13.006Z,5.60
2022-11-05T00:20:15.763Z,5.50
2022-11-05T00:25:20.103Z,5.70
2022-11-05T00:30:25.866Z,5.70
2022-11-05T00:35:28.590Z,4.30
2022-11-05T00:40:33.683Z,6.50
2022-11-05T00:45:37.718Z,6.40
2022-11-05T00:50:40.680Z,7.00
2022-11-05T00:55:45.019Z,6.60
2022-11-05T01:00:50.708Z,6.60
2022-11-05T01:05:56.285Z,6.40
2022-11-05T01:10:59.735Z,7.00
2022-11-05T01:16:07.347Z,7.40
2022-11-05T01:21:15.666Z,6.70
2022-11-05T01:26:18.747Z,6.50
2022-11-05T01:31:21.663Z,5.00
2022-11-05T01:36:25.541Z,6.50
2022-11-05T01:41:29.245Z,6.40
2022-11-05T01:46:38.516Z,6.40
2022-11-05T01:51:42.256Z,5.30
2022-11-05T01:56:53.707Z,7.00
2022-11-05T02:01:56.701Z,7.20
2022-11-05T02:07:00.097Z,6.70
2022-11-05T02:12:03.236Z,5.60
2022-11-05T02:17:11.279Z,6.80
2022-11-05T02:22:41.249Z,6.50
2022-11-05T02:28:01.437Z,6.90
2022-11-05T02:33:12.509Z,6.80
2022-11-05T02:38:21.084Z,7.20
2022-11-05T02:43:29.258Z,5.90
2022-11-05T02:48:42.274Z,6.80
2022-11-05T02:53:51.034Z,6.80
2022-11-05T02:58:53.547Z,6.80
2022-11-05T03:04:00.667Z,7.30
2022-11-05T03:09:28.258Z,7.20
2022-11-05T03:14:40.243Z,7.40
2022-11-05T03:19:45.661Z,7.20
2022-11-05T03:24:54.325Z,7.40
2022-11-05T03:30:03.053Z,7.10
2022-11-05T03:35:14.639Z,6.50
2022-11-05T03:40:18.608Z,7.70
2022-11-05T03:45:31.970Z,6.40
2022-11-05T03:50:44.858Z,6.20
2022-11-05T03:55:56.563Z,7.10
2022-11-05T04:01:02.091Z,6.90
2022-11-05T04:06:09.659Z,7.80
2022-11-05T04:11:15.238Z,8.00
2022-11-05T04:16:20.663Z,7.90
2022-11-05T04:21:26.161Z,7.50
2022-11-05T04:26:28.644Z,7.80
2022-11-05T04:31:31.109Z,6.70
2022-11-05T04:36:33.698Z,8.80
2022-11-05T04:41:36.183Z,9.30
2022-11-05T04:46:38.684Z,8.30
2022-11-05T04:51:41.254Z,8.40
2022-11-05T04:56:43.750Z,7.60
2022-11-05T05:01:46.411Z,9.00
2022-11-05T05:06:48.941Z,9.50
2022-11-05T05:11:51.501Z,8.20
2022-11-05T05:16:53.988Z,9.00
2022-11-05T05:21:56.454Z,9.00
2022-11-05T05:26:59.210Z,9.90
2022-11-05T05:32:01.677Z,6.90
2022-11-05T05:37:04.318Z,10.80
2022-11-05T05:42:06.808Z,10.10
2022-11-05T05:47:09.386Z,10.50
2022-11-05T05:52:12.016Z,11.00
2022-11-05T05:57:14.519Z,10.00
2022-11-05T06:02:17.237Z,11.60
2022-11-05T06:07:19.788Z,11.30
2022-11-05T06:12:22.477Z,10.90
2022-11-05T06:17:25.049Z,11.90
2022-11-05T06:22:27.573Z,12.00
2022-11-05T06:27:30.161Z,11.00
2022-11-05T06:32:32.690Z,11.40
2022-11-05T06:37:35.182Z,11.10
2022-11-05T06:42:37.632Z,12.20
2022-11-05T06:47:40.169Z,11.70
2022-11-05T06:52:42.645Z,10.40
2022-11-05T06:57:45.271Z,10.90
2022-11-05T07:02:50.763Z,12.10
2022-11-05T07:07:53.247Z,11.10
2022-11-05T07:12:55.979Z,10.80
2022-11-05T07:18:00.091Z,11.20
2022-11-05T07:23:06.626Z,13.40
2022-11-05T07:29:19.111Z,12.70
2022-11-05T07:34:21.566Z,12.90
2022-11-05T07:39:24.143Z,12.80
2022-11-05T07:44:26.734Z,15.00
2022-11-05T07:49:29.248Z,14.30
2022-11-05T07:54:33.974Z,13.90
2022-11-05T07:59:36.785Z,13.90
2022-11-05T08:04:40.273Z,15.30
2022-11-05T08:09:42.834Z,15.90
2022-11-05T08:14:45.329Z,13.90
2022-11-05T08:19:47.868Z,15.10
2022-11-05T08:24:50.368Z,17.20
2022-11-05T08:29:53.011Z,17.10
2022-11-05T08:34:55.618Z,14.40
2022-11-05T08:40:00.414Z,15.20
2022-11-05T08:45:03.303Z,16.90
2022-11-05T08:50:06.296Z,22.50
2022-11-05T08:55:09.330Z,15.40
2022-11-05T09:00:13.514Z,15.40
2022-11-05T09:05:16.098Z,15.30
2022-11-05T09:10:18.585Z,17.20
2022-11-05T09:15:21.402Z,15.80
2022-11-05T09:20:23.994Z,14.60
2022-11-05T09:25:26.762Z,15.00
2022-11-05T09:30:29.325Z,16.00
2022-11-05T09:35:31.896Z,14.90
2022-11-05T09:40:43.626Z,13.50
2022-11-05T09:45:51.720Z,15.40
2022-11-05T09:50:54.800Z,17.20
2022-11-05T09:56:00.127Z,15.90
2022-11-05T10:01:09.360Z,14.70
2022-11-05T10:06:21.127Z,15.10
2022-11-05T10:11:31.799Z,17.90
2022-11-05T10:16:39.806Z,19.70
2022-11-05T10:22:05.553Z,15.90
2022-11-05T10:27:05.699Z,16.40
2022-11-05T10:32:11.590Z,16.30
2022-11-05T10:42:22.593Z,16.40
2022-11-05T10:47:31.028Z,16.20
2022-11-05T10:52:53.697Z,16.00
2022-11-05T10:58:07.967Z,17.40
2022-11-05T11:03:16.693Z,12.80
2022-11-05T11:08:24.015Z,12.50
2022-11-05T11:13:29.523Z,15.20
2022-11-05T11:18:40.339Z,16.60
2022-11-05T11:23:54.299Z,22.00
2022-11-05T11:29:01.891Z,22.00
2022-11-05T11:34:07.575Z,21.00
2022-11-05T11:39:30.403Z,21.20
2022-11-05T11:44:41.088Z,20.60
2022-11-05T11:49:48.105Z,17.70
2022-11-05T11:54:52.374Z,19.40
2022-11-05T12:00:12.682Z,17.70
2022-11-05T12:05:21.160Z,15.70
2022-11-05T12:10:34.093Z,15.50
2022-11-05T12:15:41.508Z,16.50
2022-11-05T12:20:52.775Z,13.80
2022-11-05T12:26:05.962Z,13.20
2022-11-05T12:31:08.455Z,15.50
2022-11-05T12:36:19.013Z,12.90
2022-11-05T12:41:30.124Z,12.60
2022-11-05T12:46:43.609Z,12.90
2022-11-05T12:51:50.041Z,11.60
2022-11-05T12:56:57.680Z,13.40
2022-11-05T13:02:11.296Z,11.40
2022-11-05T13:07:20.035Z,11.20
2022-11-05T13:12:27.407Z,11.70
2022-11-05T13:17:38.145Z,11.20
2022-11-05T13:22:46.591Z,12.70
2022-11-05T13:27:57.834Z,11.30
2022-11-05T13:33:12.841Z,10.30
2022-11-05T13:38:26.745Z,14.30
2022-11-05T13:43:41.636Z,15.80
2022-11-05T13:48:58.820Z,14.80
2022-11-05T13:54:10.993Z,9.10
2022-11-05T13:59:17.376Z,11.60
2022-11-05T14:04:43.075Z,11.20
2022-11-05T14:09:46.532Z,8.60
2022-11-05T14:14:58.401Z,9.50
2022-11-05T14:20:04.362Z,10.70
2022-11-05T14:25:12.701Z,11.10
2022-11-05T14:30:21.069Z,10.00
2022-11-05T14:35:41.299Z,12.70
2022-11-05T14:40:44.605Z,16.40
2022-11-05T14:45:52.945Z,12.00
2022-11-05T14:50:55.944Z,12.30
2022-11-05T14:56:07.167Z,10.30
2022-11-05T15:01:13.795Z,17.60
2022-11-05T15:06:22.405Z,16.50
2022-11-05T15:11:32.845Z,13.90
2022-11-05T15:16:42.172Z,17.40
2022-11-05T15:21:45.457Z,17.00
2022-11-05T15:33:28.107Z,14.60
2022-11-05T15:38:34.102Z,15.50
2022-11-05T15:43:47.672Z,14.10
2022-11-05T15:48:54.337Z,14.10
2022-11-05T15:59:25.081Z,20.20
2022-11-05T16:04:31.773Z,22.50
2022-11-05T16:09:37.653Z,16.30
2022-11-05T16:14:41.159Z,21.40
2022-11-05T16:19:45.812Z,36.20
2022-11-05T16:24:53.806Z,45.30
2022-11-05T16:29:57.242Z,24.10
2022-11-05T16:35:02.631Z,18.40
2022-11-05T16:40:14.499Z,14.80
2022-11-05T16:45:20.987Z,19.70
2022-11-05T16:50:27.249Z,23.70
2022-11-05T16:55:32.029Z,16.10
2022-11-05T17:00:34.551Z,14.70
2022-11-05T17:05:39.396Z,15.50
2022-11-05T17:10:41.940Z,14.20
2022-11-05T17:15:47.330Z,13.00
2022-11-05T17:20:55.609Z,9.20
2022-11-05T17:26:02.174Z,11.50
2022-11-05T17:31:07.721Z,16.50
2022-11-05T17:36:13.473Z,13.70
2022-11-05T17:41:19.463Z,13.30
2022-11-05T17:51:27.981Z,22.10
2022-11-05T17:56:35.032Z,15.50
2022-11-05T18:01:43.551Z,15.50
2022-11-05T18:06:46.494Z,14.30
2022-11-05T18:11:51.541Z,16.00
2022-11-05T18:16:59.123Z,16.20
2022-11-05T18:22:01.680Z,12.10
2022-11-05T18:27:04.198Z,15.30
2022-11-05T18:32:06.781Z,17.60
2022-11-05T18:37:09.366Z,16.40
2022-11-05T18:42:11.969Z,10.50
2022-11-05T18:47:14.726Z,11.40
2022-11-05T18:52:17.315Z,13.10
2022-11-05T18:57:19.841Z,14.90
2022-11-05T19:02:23.166Z,13.30
2022-11-05T19:07:25.819Z,13.50
2022-11-05T19:12:28.463Z,16.00
2022-11-05T19:17:33.113Z,14.90
2022-11-05T19:22:36.194Z,12.80
2022-11-05T19:27:39.197Z,10.70
2022-11-05T19:32:44.011Z,8.40
2022-11-05T19:37:46.575Z,8.50
2022-11-05T19:42:49.048Z,9.40
2022-11-05T19:47:53.663Z,9.50
2022-11-05T19:52:56.405Z,8.90
2022-11-05T19:57:58.890Z,8.60
2022-11-05T20:03:02.503Z,9.70
2022-11-05T20:08:05.302Z,14.10
2022-11-05T20:13:07.917Z,19.90
2022-11-05T20:18:10.723Z,16.60
2022-11-05T20:23:14.517Z,14.60
2022-11-05T20:28:17.184Z,13.40
2022-11-05T20:33:19.823Z,13.10
2022-11-05T20:38:22.485Z,12.70
2022-11-05T20:43:30.118Z,13.10
2022-11-05T20:48:34.490Z,24.10
2022-11-05T20:53:37.784Z,29.10
2022-11-05T20:58:40.256Z,25.40
2022-11-05T21:03:43.901Z,17.30
2022-11-05T21:08:48.110Z,10.10
2022-11-05T21:13:50.687Z,10.70
2022-11-05T21:18:53.251Z,10.00
2022-11-05T21:23:56.996Z,13.30
2022-11-05T21:28:59.487Z,11.10
2022-11-05T21:34:02.025Z,11.30
2022-11-05T21:39:09.024Z,12.30
2022-11-05T21:44:14.712Z,12.60
2022-11-05T21:49:17.249Z,17.10
2022-11-05T21:54:22.782Z,16.10
2022-11-05T21:59:28.614Z,14.50
2022-11-05T22:09:35.234Z,7.80
2022-11-05T22:14:37.751Z,8.30
2022-11-05T22:19:40.361Z,6.40
2022-11-05T22:24:43.320Z,7.60
2022-11-05T22:29:46.123Z,9.50
2022-11-05T22:34:48.946Z,11.00
2022-11-05T22:39:51.766Z,8.60
2022-11-05T22:44:54.232Z,7.90
2022-11-05T22:49:56.844Z,8.50
2022-11-05T22:56:19.363Z,8.50
2022-11-05T23:01:23.422Z,8.30
2022-11-05T23:06:31.798Z,8.10
2022-11-05T23:11:35.303Z,7.60
2022-11-05T23:16:59.339Z,7.60
2022-11-05T23:22:04.848Z,8.00
2022-11-05T23:27:07.826Z,7.80
2022-11-05T23:32:13.260Z,7.60
2022-11-05T23:37:19.169Z,8.00
2022-11-05T23:42:24.609Z,7.40
2022-11-05T23:47:30.058Z,8.50
2022-11-05T23:52:32.545Z,8.40
2022-11-05T23:57:35.103Z,7.70
